Terminal Aerodrome Forecast
Issued by NWS

Home | Current Version | Previous Version | Text Only | Print | Product List | Glossary On
Versions: 1 2 3 4 5 6 7 8 9 10 11 12 13 14 15 16 17 18 19 20 21 22 23 24 25 26
000
FTUS42 KCAE 182300
TAFOGB
TAF
KOGB 182339Z 1900/1924 04012G18KT 5SM -RA BR SCT006 BKN040 OVC070
      TEMPO 1900/1902 2SM +RA BR BKN006 OVC015
     FM190200 04014G20KT 3SM RA BR BKN006 OVC015
     FM191500 04012G17KT 5SM -RA BR BKN007 OVC015
     FM192100 02011G16KT 6SM BR BKN007 OVC015=

USA.gov is the U.S. government's official web portal to all federal, state and local government web resources and services.